sensor_id;sensor_type;location;lat;lon;timestamp;temperature;humidity
16392;DHT22;8305;-33.882;151.134;2023-03-25T00:00:01;23.20;99.90
16392;DHT22;8305;-33.882;151.134;2023-03-25T00:02:40;23.30;99.90
16392;DHT22;8305;-33.882;151.134;2023-03-25T00:05:14;23.30;99.90
16392;DHT22;8305;-33.882;151.134;2023-03-25T00:07:47;23.30;99.90
16392;DHT22;8305;-33.882;151.134;2023-03-25T00:10:18;23.40;99.90
16392;DHT22;8305;-33.882;151.134;2023-03-25T00:12:51;23.30;99.90
16392;DHT22;8305;-33.882;151.134;2023-03-25T00:15:22;23.30;99.90
16392;DHT22;8305;-33.882;151.134;2023-03-25T00:17:53;23.30;99.90
16392;DHT22;8305;-33.882;151.134;2023-03-25T00:20:26;23.30;99.90
16392;DHT22;8305;-33.882;151.134;2023-03-25T00:22:59;23.40;99.90
16392;DHT22;8305;-33.882;151.134;2023-03-25T00:25:31;23.40;99.90
16392;DHT22;8305;-33.882;151.134;2023-03-25T00:28:03;23.50;99.90
16392;DHT22;8305;-33.882;151.134;2023-03-25T00:30:36;23.50;99.90
16392;DHT22;8305;-33.882;151.134;2023-03-25T00:33:08;23.60;99.90
16392;DHT22;8305;-33.882;151.134;2023-03-25T00:35:44;23.70;99.90
16392;DHT22;8305;-33.882;151.134;2023-03-25T00:38:16;23.70;99.90
16392;DHT22;8305;-33.882;151.134;2023-03-25T00:40:47;23.70;99.90
16392;DHT22;8305;-33.882;151.134;2023-03-25T00:43:20;23.60;99.90
16392;DHT22;8305;-33.882;151.134;2023-03-25T00:45:55;23.60;99.90
16392;DHT22;8305;-33.882;151.134;2023-03-25T00:48:26;23.60;99.90
16392;DHT22;8305;-33.882;151.134;2023-03-25T00:50:59;23.60;99.90
16392;DHT22;8305;-33.882;151.134;2023-03-25T00:53:35;23.60;99.90
16392;DHT22;8305;-33.882;151.134;2023-03-25T00:56:07;23.60;99.90
16392;DHT22;8305;-33.882;151.134;2023-03-25T00:58:39;23.60;99.90
16392;DHT22;8305;-33.882;151.134;2023-03-25T01:01:11;23.60;99.90
16392;DHT22;8305;-33.882;151.134;2023-03-25T01:03:45;23.70;99.90
16392;DHT22;8305;-33.882;151.134;2023-03-25T01:06:27;23.60;99.90
16392;DHT22;8305;-33.882;151.134;2023-03-25T01:09:00;23.70;99.90
16392;DHT22;8305;-33.882;151.134;2023-03-25T01:11:33;23.70;99.90
16392;DHT22;8305;-33.882;151.134;2023-03-25T01:14:06;23.70;99.90
16392;DHT22;8305;-33.882;151.134;2023-03-25T01:16:38;23.80;99.90
16392;DHT22;8305;-33.882;151.134;2023-03-25T01:19:09;23.80;99.90
16392;DHT22;8305;-33.882;151.134;2023-03-25T01:21:43;23.80;99.90
16392;DHT22;8305;-33.882;151.134;2023-03-25T01:24:14;24.00;99.90
16392;DHT22;8305;-33.882;151.134;2023-03-25T01:26:45;24.20;99.90
16392;DHT22;8305;-33.882;151.134;2023-03-25T01:29:18;24.40;99.90
16392;DHT22;8305;-33.882;151.134;2023-03-25T01:31:49;24.60;99.90
16392;DHT22;8305;-33.882;151.134;2023-03-25T01:34:20;24.50;99.90
16392;DHT22;8305;-33.882;151.134;2023-03-25T01:36:53;24.50;99.90
16392;DHT22;8305;-33.882;151.134;2023-03-25T01:39:25;24.50;99.90
16392;DHT22;8305;-33.882;151.134;2023-03-25T01:41:56;24.40;99.90
16392;DHT22;8305;-33.882;151.134;2023-03-25T01:47:33;24.30;99.90
16392;DHT22;8305;-33.882;151.134;2023-03-25T01:50:05;24.10;99.90
16392;DHT22;8305;-33.882;151.134;2023-03-25T01:52:45;24.10;99.90
16392;DHT22;8305;-33.882;151.134;2023-03-25T01:55:18;24.20;99.90
16392;DHT22;8305;-33.882;151.134;2023-03-25T01:57:53;24.20;99.90
16392;DHT22;8305;-33.882;151.134;2023-03-25T02:00:26;24.10;99.90
16392;DHT22;8305;-33.882;151.134;2023-03-25T02:02:58;24.10;99.90
16392;DHT22;8305;-33.882;151.134;2023-03-25T02:05:36;24.10;99.90
16392;DHT22;8305;-33.882;151.134;2023-03-25T02:08:10;24.20;99.90
16392;DHT22;8305;-33.882;151.134;2023-03-25T02:10:45;24.10;99.90
16392;DHT22;8305;-33.882;151.134;2023-03-25T02:13:17;24.10;99.90
16392;DHT22;8305;-33.882;151.134;2023-03-25T02:16:07;24.00;99.90
16392;DHT22;8305;-33.882;151.134;2023-03-25T02:18:45;24.10;99.90
16392;DHT22;8305;-33.882;151.134;2023-03-25T02:21:58;24.20;99.90
16392;DHT22;8305;-33.882;151.134;2023-03-25T02:25:15;24.30;99.90
16392;DHT22;8305;-33.882;151.134;2023-03-25T02:27:56;24.50;99.90
16392;DHT22;8305;-33.882;151.134;2023-03-25T02:39:31;25.20;99.90
16392;DHT22;8305;-33.882;151.134;2023-03-25T02:42:07;25.40;99.90
16392;DHT22;8305;-33.882;151.134;2023-03-25T02:44:48;25.20;99.90
16392;DHT22;8305;-33.882;151.134;2023-03-25T02:47:25;25.30;99.90
16392;DHT22;8305;-33.882;151.134;2023-03-25T02:49:59;25.20;99.90
16392;DHT22;8305;-33.882;151.134;2023-03-25T02:52:36;25.20;99.90
16392;DHT22;8305;-33.882;151.134;2023-03-25T02:55:14;25.00;99.90
16392;DHT22;8305;-33.882;151.134;2023-03-25T02:57:48;24.80;99.90
16392;DHT22;8305;-33.882;151.134;2023-03-25T03:00:22;24.70;99.90
16392;DHT22;8305;-33.882;151.134;2023-03-25T03:02:56;24.60;99.90
16392;DHT22;8305;-33.882;151.134;2023-03-25T03:05:29;24.60;99.90
16392;DHT22;8305;-33.882;151.134;2023-03-25T03:08:12;24.60;99.90
16392;DHT22;8305;-33.882;151.134;2023-03-25T03:10:54;24.60;99.90
16392;DHT22;8305;-33.882;151.134;2023-03-25T03:13:36;24.60;99.90
16392;DHT22;8305;-33.882;151.134;2023-03-25T03:16:15;24.50;99.90
16392;DHT22;8305;-33.882;151.134;2023-03-25T03:18:55;24.50;99.90
16392;DHT22;8305;-33.882;151.134;2023-03-25T03:21:35;24.40;99.90
16392;DHT22;8305;-33.882;151.134;2023-03-25T03:24:13;24.40;99.90
16392;DHT22;8305;-33.882;151.134;2023-03-25T03:26:51;24.40;99.90
16392;DHT22;8305;-33.882;151.134;2023-03-25T03:29:27;24.40;99.90
16392;DHT22;8305;-33.882;151.134;2023-03-25T03:32:03;24.50;99.90
16392;DHT22;8305;-33.882;151.134;2023-03-25T03:34:39;24.50;99.90
16392;DHT22;8305;-33.882;151.134;2023-03-25T03:37:14;24.40;99.90
16392;DHT22;8305;-33.882;151.134;2023-03-25T03:39:49;24.40;99.90
16392;DHT22;8305;-33.882;151.134;2023-03-25T03:42:28;24.30;99.90
16392;DHT22;8305;-33.882;151.134;2023-03-25T03:45:03;24.30;99.90
16392;DHT22;8305;-33.882;151.134;2023-03-25T03:47:38;24.20;99.90
16392;DHT22;8305;-33.882;151.134;2023-03-25T03:50:14;24.10;99.90
16392;DHT22;8305;-33.882;151.134;2023-03-25T03:52:50;24.10;99.90
16392;DHT22;8305;-33.882;151.134;2023-03-25T03:55:25;24.00;99.90
16392;DHT22;8305;-33.882;151.134;2023-03-25T03:58:04;24.00;99.90
16392;DHT22;8305;-33.882;151.134;2023-03-25T04:00:39;23.90;99.90
16392;DHT22;8305;-33.882;151.134;2023-03-25T04:03:15;23.90;99.90
16392;DHT22;8305;-33.882;151.134;2023-03-25T04:05:56;24.00;99.90
16392;DHT22;8305;-33.882;151.134;2023-03-25T04:08:36;24.00;99.90
16392;DHT22;8305;-33.882;151.134;2023-03-25T04:11:11;24.00;99.90
16392;DHT22;8305;-33.882;151.134;2023-03-25T04:13:51;24.00;99.90
16392;DHT22;8305;-33.882;151.134;2023-03-25T04:16:24;24.00;99.90
16392;DHT22;8305;-33.882;151.134;2023-03-25T04:18:55;23.90;99.90
16392;DHT22;8305;-33.882;151.134;2023-03-25T04:21:26;23.90;99.90
16392;DHT22;8305;-33.882;151.134;2023-03-25T04:23:57;23.80;99.90
16392;DHT22;8305;-33.882;151.134;2023-03-25T04:26:29;23.80;99.90
16392;DHT22;8305;-33.882;151.134;2023-03-25T04:29:03;23.70;99.90
16392;DHT22;8305;-33.882;151.134;2023-03-25T04:31:34;23.70;99.90
16392;DHT22;8305;-33.882;151.134;2023-03-25T04:34:13;23.70;99.90
16392;DHT22;8305;-33.882;151.134;2023-03-25T04:36:44;23.60;99.90
16392;DHT22;8305;-33.882;151.134;2023-03-25T04:39:17;23.60;99.90
16392;DHT22;8305;-33.882;151.134;2023-03-25T04:41:49;23.60;99.90
16392;DHT22;8305;-33.882;151.134;2023-03-25T04:44:23;23.60;99.90
16392;DHT22;8305;-33.882;151.134;2023-03-25T04:46:55;23.60;99.90
16392;DHT22;8305;-33.882;151.134;2023-03-25T04:49:26;23.60;99.90
16392;DHT22;8305;-33.882;151.134;2023-03-25T04:51:57;23.50;99.90
16392;DHT22;8305;-33.882;151.134;2023-03-25T04:54:31;23.60;99.90
16392;DHT22;8305;-33.882;151.134;2023-03-25T04:57:02;23.60;99.90
16392;DHT22;8305;-33.882;151.134;2023-03-25T04:59:37;23.60;99.90
16392;DHT22;8305;-33.882;151.134;2023-03-25T05:02:09;23.60;99.90
16392;DHT22;8305;-33.882;151.134;2023-03-25T05:04:41;23.60;99.90
16392;DHT22;8305;-33.882;151.134;2023-03-25T05:07:14;23.50;99.90
16392;DHT22;8305;-33.882;151.134;2023-03-25T05:09:45;23.50;99.90
16392;DHT22;8305;-33.882;151.134;2023-03-25T05:12:16;23.40;99.90
16392;DHT22;8305;-33.882;151.134;2023-03-25T05:14:49;23.30;99.90
16392;DHT22;8305;-33.882;151.134;2023-03-25T05:17:20;23.20;99.90
16392;DHT22;8305;-33.882;151.134;2023-03-25T05:19:51;23.20;99.90
16392;DHT22;8305;-33.882;151.134;2023-03-25T05:22:23;23.20;99.90
16392;DHT22;8305;-33.882;151.134;2023-03-25T05:24:54;23.10;99.90
16392;DHT22;8305;-33.882;151.134;2023-03-25T05:27:25;23.00;99.90
16392;DHT22;8305;-33.882;151.134;2023-03-25T05:29:59;23.00;99.90
16392;DHT22;8305;-33.882;151.134;2023-03-25T05:32:30;22.90;99.90
16392;DHT22;8305;-33.882;151.134;2023-03-25T05:35:03;22.70;99.90
16392;DHT22;8305;-33.882;151.134;2023-03-25T05:37:34;22.60;99.90
16392;DHT22;8305;-33.882;151.134;2023-03-25T05:40:05;22.30;99.90
16392;DHT22;8305;-33.882;151.134;2023-03-25T05:42:38;22.00;99.90
16392;DHT22;8305;-33.882;151.134;2023-03-25T05:45:18;21.80;99.90
16392;DHT22;8305;-33.882;151.134;2023-03-25T05:47:49;21.60;99.90
16392;DHT22;8305;-33.882;151.134;2023-03-25T05:50:21;21.40;99.90
16392;DHT22;8305;-33.882;151.134;2023-03-25T05:52:52;21.20;99.90
16392;DHT22;8305;-33.882;151.134;2023-03-25T05:55:24;21.20;99.90
16392;DHT22;8305;-33.882;151.134;2023-03-25T05:57:55;21.10;99.90
16392;DHT22;8305;-33.882;151.134;2023-03-25T06:00:29;21.10;99.90
16392;DHT22;8305;-33.882;151.134;2023-03-25T06:03:00;21.00;99.90
16392;DHT22;8305;-33.882;151.134;2023-03-25T06:05:32;20.90;99.90
16392;DHT22;8305;-33.882;151.134;2023-03-25T06:08:03;20.90;99.90
16392;DHT22;8305;-33.882;151.134;2023-03-25T06:10:35;20.80;99.90
16392;DHT22;8305;-33.882;151.134;2023-03-25T06:13:06;20.80;99.90
16392;DHT22;8305;-33.882;151.134;2023-03-25T06:15:39;20.70;99.90
16392;DHT22;8305;-33.882;151.134;2023-03-25T06:18:11;20.70;99.90
16392;DHT22;8305;-33.882;151.134;2023-03-25T06:20:42;20.70;99.90
16392;DHT22;8305;-33.882;151.134;2023-03-25T06:23:14;20.60;99.90
16392;DHT22;8305;-33.882;151.134;2023-03-25T06:25:45;20.60;99.90
16392;DHT22;8305;-33.882;151.134;2023-03-25T06:28:16;20.50;99.90
16392;DHT22;8305;-33.882;151.134;2023-03-25T06:30:50;20.40;99.90
16392;DHT22;8305;-33.882;151.134;2023-03-25T06:33:21;20.50;99.90
16392;DHT22;8305;-33.882;151.134;2023-03-25T06:35:52;20.50;99.90
16392;DHT22;8305;-33.882;151.134;2023-03-25T06:38:24;20.50;99.90
16392;DHT22;8305;-33.882;151.134;2023-03-25T06:40:56;20.50;99.90
16392;DHT22;8305;-33.882;151.134;2023-03-25T06:43:28;20.50;99.90
16392;DHT22;8305;-33.882;151.134;2023-03-25T06:46:01;20.50;99.90
16392;DHT22;8305;-33.882;151.134;2023-03-25T06:48:32;20.50;99.90
16392;DHT22;8305;-33.882;151.134;2023-03-25T06:51:03;20.50;99.90
16392;DHT22;8305;-33.882;151.134;2023-03-25T06:53:34;20.50;99.90
16392;DHT22;8305;-33.882;151.134;2023-03-25T06:56:06;20.50;99.90
16392;DHT22;8305;-33.882;151.134;2023-03-25T06:58:37;20.50;99.90
16392;DHT22;8305;-33.882;151.134;2023-03-25T07:01:10;20.50;99.90
16392;DHT22;8305;-33.882;151.134;2023-03-25T07:03:41;20.50;99.90
16392;DHT22;8305;-33.882;151.134;2023-03-25T07:06:17;20.50;99.90
16392;DHT22;8305;-33.882;151.134;2023-03-25T07:08:48;20.40;99.90
16392;DHT22;8305;-33.882;151.134;2023-03-25T07:11:23;20.40;99.90
16392;DHT22;8305;-33.882;151.134;2023-03-25T07:13:55;20.30;99.90
16392;DHT22;8305;-33.882;151.134;2023-03-25T07:16:28;20.20;99.90
16392;DHT22;8305;-33.882;151.134;2023-03-25T07:19:00;20.20;99.90
16392;DHT22;8305;-33.882;151.134;2023-03-25T07:21:31;20.20;99.90
16392;DHT22;8305;-33.882;151.134;2023-03-25T07:24:02;20.20;99.90
16392;DHT22;8305;-33.882;151.134;2023-03-25T07:26:33;20.10;99.90
16392;DHT22;8305;-33.882;151.134;2023-03-25T07:29:04;20.00;99.90
16392;DHT22;8305;-33.882;151.134;2023-03-25T07:31:37;20.00;99.90
16392;DHT22;8305;-33.882;151.134;2023-03-25T07:34:08;20.00;99.90
16392;DHT22;8305;-33.882;151.134;2023-03-25T07:36:39;20.00;99.90
16392;DHT22;8305;-33.882;151.134;2023-03-25T07:39:10;20.00;99.90
16392;DHT22;8305;-33.882;151.134;2023-03-25T07:41:41;20.00;99.90
16392;DHT22;8305;-33.882;151.134;2023-03-25T07:44:14;20.00;99.90
16392;DHT22;8305;-33.882;151.134;2023-03-25T07:46:49;20.10;99.90
16392;DHT22;8305;-33.882;151.134;2023-03-25T07:49:20;20.00;99.90
16392;DHT22;8305;-33.882;151.134;2023-03-25T07:51:51;20.00;99.90
16392;DHT22;8305;-33.882;151.134;2023-03-25T07:54:22;20.00;99.90
16392;DHT22;8305;-33.882;151.134;2023-03-25T07:56:53;20.00;99.90
16392;DHT22;8305;-33.882;151.134;2023-03-25T07:59:24;19.90;99.90
16392;DHT22;8305;-33.882;151.134;2023-03-25T08:01:57;20.00;99.90
16392;DHT22;8305;-33.882;151.134;2023-03-25T08:04:29;19.90;99.90
16392;DHT22;8305;-33.882;151.134;2023-03-25T08:07:00;19.90;99.90
16392;DHT22;8305;-33.882;151.134;2023-03-25T08:09:31;19.90;99.90
16392;DHT22;8305;-33.882;151.134;2023-03-25T08:12:02;19.90;99.90
16392;DHT22;8305;-33.882;151.134;2023-03-25T08:14:33;19.90;99.90
16392;DHT22;8305;-33.882;151.134;2023-03-25T08:17:07;19.90;99.90
16392;DHT22;8305;-33.882;151.134;2023-03-25T08:19:38;19.90;99.90
16392;DHT22;8305;-33.882;151.134;2023-03-25T08:22:09;19.90;99.90
16392;DHT22;8305;-33.882;151.134;2023-03-25T08:24:40;20.00;99.90
16392;DHT22;8305;-33.882;151.134;2023-03-25T08:27:11;20.00;99.90
16392;DHT22;8305;-33.882;151.134;2023-03-25T08:29:43;20.00;99.90
16392;DHT22;8305;-33.882;151.134;2023-03-25T08:32:16;20.00;99.90
16392;DHT22;8305;-33.882;151.134;2023-03-25T08:34:47;20.00;99.90
16392;DHT22;8305;-33.882;151.134;2023-03-25T08:37:18;20.00;99.90
16392;DHT22;8305;-33.882;151.134;2023-03-25T08:39:49;20.00;99.90
16392;DHT22;8305;-33.882;151.134;2023-03-25T08:42:22;20.00;99.90
16392;DHT22;8305;-33.882;151.134;2023-03-25T08:44:54;20.00;99.90
16392;DHT22;8305;-33.882;151.134;2023-03-25T08:47:26;20.00;99.90
16392;DHT22;8305;-33.882;151.134;2023-03-25T08:49:58;20.10;99.90
16392;DHT22;8305;-33.882;151.134;2023-03-25T08:52:29;20.10;99.90
16392;DHT22;8305;-33.882;151.134;2023-03-25T08:55:00;20.10;99.90
16392;DHT22;8305;-33.882;151.134;2023-03-25T08:57:31;20.10;99.90
16392;DHT22;8305;-33.882;151.134;2023-03-25T09:00:03;20.10;99.90
16392;DHT22;8305;-33.882;151.134;2023-03-25T09:02:41;20.10;99.90
16392;DHT22;8305;-33.882;151.134;2023-03-25T09:05:13;20.10;99.90
16392;DHT22;8305;-33.882;151.134;2023-03-25T09:07:46;20.10;99.90
16392;DHT22;8305;-33.882;151.134;2023-03-25T09:10:17;20.20;99.90
16392;DHT22;8305;-33.882;151.134;2023-03-25T09:12:48;20.20;99.90
16392;DHT22;8305;-33.882;151.134;2023-03-25T09:15:19;20.20;99.90
16392;DHT22;8305;-33.882;151.134;2023-03-25T09:17:52;20.20;99.90
16392;DHT22;8305;-33.882;151.134;2023-03-25T09:20:23;20.20;99.90
16392;DHT22;8305;-33.882;151.134;2023-03-25T09:22:54;20.20;99.90
16392;DHT22;8305;-33.882;151.134;2023-03-25T09:25:25;20.20;99.90
16392;DHT22;8305;-33.882;151.134;2023-03-25T09:27:57;20.30;99.90
16392;DHT22;8305;-33.882;151.134;2023-03-25T09:30:28;20.30;99.90
16392;DHT22;8305;-33.882;151.134;2023-03-25T09:33:01;20.30;99.90
16392;DHT22;8305;-33.882;151.134;2023-03-25T09:35:32;20.30;99.90
16392;DHT22;8305;-33.882;151.134;2023-03-25T09:38:03;20.30;99.90
16392;DHT22;8305;-33.882;151.134;2023-03-25T09:40:34;20.30;99.90
16392;DHT22;8305;-33.882;151.134;2023-03-25T09:43:23;20.40;99.90
16392;DHT22;8305;-33.882;151.134;2023-03-25T09:45:59;20.40;99.90
16392;DHT22;8305;-33.882;151.134;2023-03-25T09:48:35;20.40;99.90
16392;DHT22;8305;-33.882;151.134;2023-03-25T09:51:11;20.40;99.90
16392;DHT22;8305;-33.882;151.134;2023-03-25T09:53:45;20.40;99.90
16392;DHT22;8305;-33.882;151.134;2023-03-25T09:56:21;20.30;99.90
16392;DHT22;8305;-33.882;151.134;2023-03-25T09:58:53;20.40;99.90
16392;DHT22;8305;-33.882;151.134;2023-03-25T10:01:33;20.40;99.90
16392;DHT22;8305;-33.882;151.134;2023-03-25T10:04:42;20.30;99.90
16392;DHT22;8305;-33.882;151.134;2023-03-25T10:07:24;20.30;99.90
16392;DHT22;8305;-33.882;151.134;2023-03-25T10:10:06;20.40;99.90
16392;DHT22;8305;-33.882;151.134;2023-03-25T10:12:46;20.40;99.90
16392;DHT22;8305;-33.882;151.134;2023-03-25T10:15:29;20.50;99.90
16392;DHT22;8305;-33.882;151.134;2023-03-25T10:18:19;20.50;99.90
16392;DHT22;8305;-33.882;151.134;2023-03-25T10:21:05;20.50;99.90
16392;DHT22;8305;-33.882;151.134;2023-03-25T10:23:40;20.40;99.90
16392;DHT22;8305;-33.882;151.134;2023-03-25T10:26:15;20.40;99.90
16392;DHT22;8305;-33.882;151.134;2023-03-25T10:28:49;20.40;99.90
16392;DHT22;8305;-33.882;151.134;2023-03-25T10:31:23;20.40;99.90
16392;DHT22;8305;-33.882;151.134;2023-03-25T10:33:59;20.40;99.90
16392;DHT22;8305;-33.882;151.134;2023-03-25T10:36:35;20.40;99.90
16392;DHT22;8305;-33.882;151.134;2023-03-25T10:39:15;20.40;99.90
16392;DHT22;8305;-33.882;151.134;2023-03-25T10:41:51;20.40;99.90
16392;DHT22;8305;-33.882;151.134;2023-03-25T10:44:28;20.40;99.90
16392;DHT22;8305;-33.882;151.134;2023-03-25T10:47:03;20.40;99.90
16392;DHT22;8305;-33.882;151.134;2023-03-25T10:49:37;20.40;99.90
16392;DHT22;8305;-33.882;151.134;2023-03-25T10:52:13;20.40;99.90
16392;DHT22;8305;-33.882;151.134;2023-03-25T10:54:48;20.40;99.90
16392;DHT22;8305;-33.882;151.134;2023-03-25T10:57:24;20.40;99.90
16392;DHT22;8305;-33.882;151.134;2023-03-25T11:00:03;20.40;99.90
16392;DHT22;8305;-33.882;151.134;2023-03-25T11:02:39;20.40;99.90
16392;DHT22;8305;-33.882;151.134;2023-03-25T11:05:12;20.50;99.90
16392;DHT22;8305;-33.882;151.134;2023-03-25T11:07:49;20.40;99.90
16392;DHT22;8305;-33.882;151.134;2023-03-25T11:10:23;20.50;99.90
16392;DHT22;8305;-33.882;151.134;2023-03-25T11:12:55;20.50;99.90
16392;DHT22;8305;-33.882;151.134;2023-03-25T11:15:32;20.50;99.90
16392;DHT22;8305;-33.882;151.134;2023-03-25T11:18:07;20.50;99.90
16392;DHT22;8305;-33.882;151.134;2023-03-25T11:20:47;20.50;99.90
16392;DHT22;8305;-33.882;151.134;2023-03-25T11:23:25;20.50;99.90
16392;DHT22;8305;-33.882;151.134;2023-03-25T11:26:02;20.50;99.90
16392;DHT22;8305;-33.882;151.134;2023-03-25T11:28:37;20.50;99.90
16392;DHT22;8305;-33.882;151.134;2023-03-25T11:31:14;20.50;99.90
16392;DHT22;8305;-33.882;151.134;2023-03-25T11:33:59;20.50;99.90
16392;DHT22;8305;-33.882;151.134;2023-03-25T11:36:34;20.50;99.90
16392;DHT22;8305;-33.882;151.134;2023-03-25T11:39:17;20.40;99.90
16392;DHT22;8305;-33.882;151.134;2023-03-25T11:41:49;20.50;99.90
16392;DHT22;8305;-33.882;151.134;2023-03-25T11:44:24;20.50;99.90
16392;DHT22;8305;-33.882;151.134;2023-03-25T11:46:57;20.40;99.90
16392;DHT22;8305;-33.882;151.134;2023-03-25T11:49:31;20.50;99.90
16392;DHT22;8305;-33.882;151.134;2023-03-25T11:52:07;20.40;99.90
16392;DHT22;8305;-33.882;151.134;2023-03-25T11:54:41;20.40;99.90
16392;DHT22;8305;-33.882;151.134;2023-03-25T11:57:15;20.40;99.90
16392;DHT22;8305;-33.882;151.134;2023-03-25T11:59:48;20.30;99.90
16392;DHT22;8305;-33.882;151.134;2023-03-25T12:02:22;20.30;99.90
16392;DHT22;8305;-33.882;151.134;2023-03-25T12:04:58;20.30;99.90
16392;DHT22;8305;-33.882;151.134;2023-03-25T12:07:31;20.30;99.90
16392;DHT22;8305;-33.882;151.134;2023-03-25T12:10:17;20.30;99.90
16392;DHT22;8305;-33.882;151.134;2023-03-25T12:12:56;20.30;99.90
16392;DHT22;8305;-33.882;151.134;2023-03-25T12:15:36;20.30;99.90
16392;DHT22;8305;-33.882;151.134;2023-03-25T12:18:22;20.30;99.90
16392;DHT22;8305;-33.882;151.134;2023-03-25T12:21:03;20.30;99.90
16392;DHT22;8305;-33.882;151.134;2023-03-25T12:23:41;20.40;99.90
16392;DHT22;8305;-33.882;151.134;2023-03-25T12:26:23;20.40;99.90
16392;DHT22;8305;-33.882;151.134;2023-03-25T12:29:16;20.40;99.90
16392;DHT22;8305;-33.882;151.134;2023-03-25T12:31:58;20.30;99.90
16392;DHT22;8305;-33.882;151.134;2023-03-25T12:34:42;20.30;99.90
16392;DHT22;8305;-33.882;151.134;2023-03-25T12:37:23;20.30;99.90
16392;DHT22;8305;-33.882;151.134;2023-03-25T12:42:59;20.30;99.90
16392;DHT22;8305;-33.882;151.134;2023-03-25T12:45:48;20.30;99.90
16392;DHT22;8305;-33.882;151.134;2023-03-25T12:48:31;20.30;99.90
16392;DHT22;8305;-33.882;151.134;2023-03-25T12:51:14;20.20;99.90
16392;DHT22;8305;-33.882;151.134;2023-03-25T12:53:55;20.20;99.90
16392;DHT22;8305;-33.882;151.134;2023-03-25T12:56:43;20.20;99.90
16392;DHT22;8305;-33.882;151.134;2023-03-25T12:59:41;20.20;99.90
16392;DHT22;8305;-33.882;151.134;2023-03-25T13:02:29;20.20;99.90
16392;DHT22;8305;-33.882;151.134;2023-03-25T13:05:14;20.20;99.90
16392;DHT22;8305;-33.882;151.134;2023-03-25T13:07:50;20.20;99.90
16392;DHT22;8305;-33.882;151.134;2023-03-25T13:10:23;20.20;99.90
16392;DHT22;8305;-33.882;151.134;2023-03-25T13:12:56;20.20;99.90
16392;DHT22;8305;-33.882;151.134;2023-03-25T13:15:34;20.20;99.90
16392;DHT22;8305;-33.882;151.134;2023-03-25T13:18:08;20.20;99.90
16392;DHT22;8305;-33.882;151.134;2023-03-25T13:20:41;20.20;99.90
16392;DHT22;8305;-33.882;151.134;2023-03-25T13:23:16;20.30;99.90
16392;DHT22;8305;-33.882;151.134;2023-03-25T13:25:53;20.30;99.90
16392;DHT22;8305;-33.882;151.134;2023-03-25T13:28:28;20.40;99.90
16392;DHT22;8305;-33.882;151.134;2023-03-25T13:31:11;20.50;99.90
16392;DHT22;8305;-33.882;151.134;2023-03-25T13:33:46;20.50;99.90
16392;DHT22;8305;-33.882;151.134;2023-03-25T13:36:21;20.60;99.90
16392;DHT22;8305;-33.882;151.134;2023-03-25T13:38:57;20.60;99.90
16392;DHT22;8305;-33.882;151.134;2023-03-25T13:41:33;20.60;99.90
16392;DHT22;8305;-33.882;151.134;2023-03-25T13:44:13;20.60;99.90
16392;DHT22;8305;-33.882;151.134;2023-03-25T13:46:51;20.60;99.90
16392;DHT22;8305;-33.882;151.134;2023-03-25T13:49:25;20.50;99.90
16392;DHT22;8305;-33.882;151.134;2023-03-25T13:51:59;20.50;99.90
16392;DHT22;8305;-33.882;151.134;2023-03-25T13:54:33;20.50;99.90
16392;DHT22;8305;-33.882;151.134;2023-03-25T13:57:24;20.50;99.90
16392;DHT22;8305;-33.882;151.134;2023-03-25T14:00:29;20.50;99.90
16392;DHT22;8305;-33.882;151.134;2023-03-25T14:06:44;20.40;99.90
16392;DHT22;8305;-33.882;151.134;2023-03-25T14:12:30;20.40;99.90
16392;DHT22;8305;-33.882;151.134;2023-03-25T14:15:08;20.40;99.90
16392;DHT22;8305;-33.882;151.134;2023-03-25T14:17:41;20.40;99.90
16392;DHT22;8305;-33.882;151.134;2023-03-25T14:20:19;20.40;99.90
16392;DHT22;8305;-33.882;151.134;2023-03-25T14:22:58;20.40;99.90
16392;DHT22;8305;-33.882;151.134;2023-03-25T14:25:36;20.40;99.90
16392;DHT22;8305;-33.882;151.134;2023-03-25T14:28:11;20.40;99.90
16392;DHT22;8305;-33.882;151.134;2023-03-25T14:30:48;20.40;99.90
16392;DHT22;8305;-33.882;151.134;2023-03-25T14:37:13;20.40;99.90
16392;DHT22;8305;-33.882;151.134;2023-03-25T14:39:48;20.40;99.90
16392;DHT22;8305;-33.882;151.134;2023-03-25T14:42:27;20.40;99.90
16392;DHT22;8305;-33.882;151.134;2023-03-25T14:45:39;20.30;99.90
16392;DHT22;8305;-33.882;151.134;2023-03-25T14:48:28;20.30;99.90
16392;DHT22;8305;-33.882;151.134;2023-03-25T14:51:20;20.40;99.90
16392;DHT22;8305;-33.882;151.134;2023-03-25T14:53:54;20.40;99.90
16392;DHT22;8305;-33.882;151.134;2023-03-25T14:56:33;20.40;99.90
16392;DHT22;8305;-33.882;151.134;2023-03-25T14:59:08;20.40;99.90
16392;DHT22;8305;-33.882;151.134;2023-03-25T15:01:41;20.40;99.90
16392;DHT22;8305;-33.882;151.134;2023-03-25T15:04:20;20.50;99.90
16392;DHT22;8305;-33.882;151.134;2023-03-25T15:06:53;20.40;99.90
16392;DHT22;8305;-33.882;151.134;2023-03-25T15:09:26;20.40;99.90
16392;DHT22;8305;-33.882;151.134;2023-03-25T15:12:01;20.40;99.90
16392;DHT22;8305;-33.882;151.134;2023-03-25T15:14:36;20.40;99.90
16392;DHT22;8305;-33.882;151.134;2023-03-25T15:17:10;20.40;99.90
16392;DHT22;8305;-33.882;151.134;2023-03-25T15:22:44;20.50;99.90
16392;DHT22;8305;-33.882;151.134;2023-03-25T15:25:29;20.50;99.90
16392;DHT22;8305;-33.882;151.134;2023-03-25T15:28:09;20.40;99.90
16392;DHT22;8305;-33.882;151.134;2023-03-25T15:31:08;20.50;99.90
16392;DHT22;8305;-33.882;151.134;2023-03-25T15:33:54;20.50;99.90
16392;DHT22;8305;-33.882;151.134;2023-03-25T15:36:56;20.40;99.90
16392;DHT22;8305;-33.882;151.134;2023-03-25T15:39:45;20.50;99.90
16392;DHT22;8305;-33.882;151.134;2023-03-25T15:42:42;20.40;99.90
16392;DHT22;8305;-33.882;151.134;2023-03-25T15:45:50;20.40;99.90
16392;DHT22;8305;-33.882;151.134;2023-03-25T15:48:54;20.50;99.90
16392;DHT22;8305;-33.882;151.134;2023-03-25T15:51:50;20.40;99.90
16392;DHT22;8305;-33.882;151.134;2023-03-25T15:54:40;20.40;99.90
16392;DHT22;8305;-33.882;151.134;2023-03-25T15:57:20;20.40;99.90
16392;DHT22;8305;-33.882;151.134;2023-03-25T15:59:58;20.40;99.90
16392;DHT22;8305;-33.882;151.134;2023-03-25T16:02:37;20.40;99.90
16392;DHT22;8305;-33.882;151.134;2023-03-25T16:05:13;20.30;99.90
16392;DHT22;8305;-33.882;151.134;2023-03-25T16:07:47;20.30;99.90
16392;DHT22;8305;-33.882;151.134;2023-03-25T16:10:19;20.30;99.90
16392;DHT22;8305;-33.882;151.134;2023-03-25T16:13:00;20.30;99.90
16392;DHT22;8305;-33.882;151.134;2023-03-25T16:15:32;20.20;99.90
16392;DHT22;8305;-33.882;151.134;2023-03-25T16:18:08;20.20;99.90
16392;DHT22;8305;-33.882;151.134;2023-03-25T16:20:39;20.20;99.90
16392;DHT22;8305;-33.882;151.134;2023-03-25T16:23:17;20.20;99.90